| time (UTC) | temp F | wind direction | speed MPH | gust MPH | rain 1hr in | rain 24hr in | rain mn in | humidity % | barometer mb |
| 20260507151205 | 56 | 203 | 0.0 | 0.0 | 0.00 | 0.05 | 0.05 | 86 | 1012.5 |
| 20260507150706 | 56 | 203 | 1.0 | 5.0 | 0.00 | 0.05 | 0.05 | 85 | 1012.4 |
| 20260507150205 | 56 | 165 | 3.0 | 7.0 | 0.00 | 0.05 | 0.05 | 85 | 1012.5 |
| 20260507145704 | 56 | 173 | 0.0 | 3.0 | 0.00 | 0.06 | 0.05 | 86 | 1012.6 |
| 20260507145205 | 56 | 185 | 0.0 | 0.0 | 0.00 | 0.06 | 0.05 | 86 | 1012.4 |
| 20260507144705 | 56 | 214 | 0.0 | 0.0 | 0.00 | 0.06 | 0.05 | 85 | 1012.5 |
| 20260507144205 | 56 | 213 | 0.0 | 0.0 | 0.00 | 0.07 | 0.05 | 86 | 1012.4 |
| 20260507143705 | 56 | 213 | 0.0 | 0.0 | 0.00 | 0.07 | 0.05 | 87 | 1012.2 |
| 20260507143204 | 56 | 213 | 0.0 | 0.0 | 0.00 | 0.08 | 0.05 | 87 | 1012.1 |
| 20260507142705 | 56 | 213 | 0.0 | 0.0 | 0.00 | 0.09 | 0.05 | 87 | 1012.4 |
| 20260507142204 | 56 | 213 | 0.0 | 0.0 | 0.00 | 0.10 | 0.05 | 87 | 1012.3 |
| 20260507141704 | 57 | 251 | 0.0 | 0.0 | 0.00 | 0.10 | 0.05 | 87 | 1012.3 |
| 20260507141204 | 57 | 251 | 0.0 | 1.0 | 0.00 | 0.10 | 0.05 | 87 | 1012.3 |
| 20260507140705 | 57 | 251 | 0.0 | 1.0 | 0.00 | 0.10 | 0.05 | 87 | 1012.6 |
| 20260507140205 | 57 | 251 | 2.0 | 5.0 | 0.00 | 0.11 | 0.05 | 86 | 1012.6 |
| 20260507135704 | 57 | 170 | 1.0 | 5.0 | 0.00 | 0.11 | 0.05 | 87 | 1012.4 |
| 20260507135204 | 57 | 170 | 3.0 | 7.0 | 0.00 | 0.11 | 0.05 | 87 | 1012.5 |
| 20260507134704 | 57 | 207 | 0.0 | 5.0 | 0.00 | 0.11 | 0.05 | 88 | 1012.6 |
| 20260507134204 | 57 | 219 | 0.0 | 0.0 | 0.00 | 0.11 | 0.05 | 89 | 1012.7 |
| 20260507133705 | 57 | 200 | 0.0 | 0.0 | 0.00 | 0.11 | 0.05 | 89 | 1012.4 |
| 20260507133204 | 57 | 210 | 2.0 | 7.0 | 0.00 | 0.11 | 0.05 | 89 | 1012.4 |
| 20260507132204 | 57 | 227 | 1.0 | 12.0 | 0.00 | 0.11 | 0.05 | 91 | 1012.0 |
| 20260507131704 | 57 | 238 | 0.0 | 5.0 | 0.00 | 0.11 | 0.05 | 91 | 1012.0 |
| 20260507131206 | 57 | 245 | 1.0 | 5.0 | 0.00 | 0.11 | 0.05 | 91 | 1012.0 |
| 20260507130705 | 57 | 294 | 0.0 | 3.0 | 0.00 | 0.11 | 0.05 | 92 | 1012.1 |
| 20260507130206 | 56 | 210 | 1.0 | 8.0 | 0.00 | 0.11 | 0.05 | 92 | 1011.8 |
| 20260507125704 | 56 | 244 | 0.0 | 0.0 | 0.00 | 0.11 | 0.05 | 92 | 1011.8 |
| 20260507125205 | 56 | 244 | 0.0 | 0.0 | 0.00 | 0.11 | 0.05 | 91 | 1012.2 |
| 20260507124706 | 56 | 244 | 0.0 | 0.0 | 0.00 | 0.11 | 0.05 | 91 | 1012.4 |
| 20260507123705 | 56 | 213 | 0.0 | 1.0 | 0.00 | 0.11 | 0.05 | 91 | 1012.2 |
| 20260507123204 | 56 | 213 | 0.0 | 0.0 | 0.00 | 0.11 | 0.05 | 91 | 1012.3 |
| 20260507122705 | 56 | 213 | 0.0 | 0.0 | 0.00 | 0.11 | 0.05 | 91 | 1012.5 |
| 20260507122205 | 56 | 214 | 0.0 | 0.0 | 0.00 | 0.11 | 0.05 | 91 | 1012.1 |
| 20260507121704 | 56 | 214 | 0.0 | 0.0 | 0.00 | 0.11 | 0.05 | 91 | 1011.8 |
| 20260507121205 | 56 | 213 | 0.0 | 0.0 | 0.00 | 0.11 | 0.05 | 91 | 1011.7 |
| 20260507120705 | 56 | 214 | 0.0 | 0.0 | 0.00 | 0.11 | 0.05 | 91 | 1011.7 |
| 20260507120205 | 56 | 213 | 0.0 | 0.0 | 0.00 | 0.11 | 0.05 | 91 | 1011.9 |
| 20260507115705 | 56 | 214 | 0.0 | 0.0 | 0.00 | 0.11 | 0.05 | 91 | 1012.2 |
| 20260507115205 | 56 | 214 | 0.0 | 0.0 | 0.00 | 0.11 | 0.05 | 91 | 1012.0 |
| 20260507114706 | 56 | 214 | 0.0 | 0.0 | 0.00 | 0.11 | 0.05 | 91 | 1012.2 |
| 20260507114204 | 56 | 214 | 0.0 | 0.0 | 0.00 | 0.11 | 0.05 | 91 | 1012.3 |
| 20260507113704 | 56 | 215 | 0.0 | 1.0 | 0.00 | 0.11 | 0.05 | 91 | 1012.2 |
| 20260507113204 | 56 | 215 | 0.0 | 0.0 | 0.00 | 0.11 | 0.05 | 91 | 1012.1 |
| 20260507112706 | 56 | 215 | 0.0 | 1.0 | 0.00 | 0.11 | 0.05 | 90 | 1012.1 |
| 20260507112204 | 56 | 214 | 0.0 | 0.0 | 0.00 | 0.11 | 0.05 | 90 | 1011.9 |
| 20260507111204 | 56 | 213 | 0.0 | 0.0 | 0.00 | 0.11 | 0.05 | 90 | 1011.3 |
| 20260507110704 | 56 | 213 | 0.0 | 0.0 | 0.00 | 0.11 | 0.05 | 90 | 1011.6 |
| 20260507105704 | 57 | 213 | 0.0 | 0.0 | 0.00 | 0.11 | 0.05 | 89 | 1011.9 |
| 20260507104705 | 57 | 212 | 0.0 | 0.0 | 0.01 | 0.11 | 0.05 | 89 | 1011.6 |
| 20260507104205 | 57 | 212 | 0.0 | 0.0 | 0.01 | 0.11 | 0.05 | 89 | 1011.5 |
| 20260507103204 | 57 | 212 | 0.0 | 0.0 | 0.01 | 0.11 | 0.05 | 88 | 1011.3 |
| 20260507102704 | 58 | 211 | 0.0 | 0.0 | 0.01 | 0.11 | 0.05 | 88 | 1011.3 |
| 20260507101704 | 58 | 200 | 2.0 | 7.0 | 0.02 | 0.11 | 0.05 | 88 | 1011.1 |
| 20260507101205 | 58 | 201 | 2.0 | 3.0 | 0.02 | 0.11 | 0.05 | 88 | 1011.1 |
| 20260507100704 | 59 | 201 | 1.0 | 3.0 | 0.02 | 0.11 | 0.05 | 87 | 1011.1 |
| 20260507100205 | 59 | 185 | 0.0 | 5.0 | 0.03 | 0.11 | 0.05 | 87 | 1011.1 |
| 20260507095705 | 59 | 184 | 4.0 | 5.0 | 0.03 | 0.11 | 0.05 | 86 | 1011.3 |
| 20260507093704 | 61 | 164 | 7.0 | 8.0 | 0.03 | 0.10 | 0.04 | 85 | 1011.0 |
| 20260507093205 | 62 | 80 | 2.0 | 5.0 | 0.03 | 0.10 | 0.04 | 85 | 1011.0 |
| 20260507092704 | 63 | 77 | 0.0 | 0.0 | 0.03 | 0.10 | 0.04 | 85 | 1010.9 |
| 20260507092205 | 63 | 240 | 4.0 | 8.0 | 0.02 | 0.09 | 0.03 | 86 | 1010.8 |
| 20260507091704 | 64 | 136 | 0.0 | 5.0 | 0.02 | 0.09 | 0.03 | 85 | 1010.7 |
| 20260507091204 | 65 | 184 | 2.0 | 5.0 | 0.02 | 0.09 | 0.03 | 86 | 1010.7 |
| 20260507090705 | 66 | 186 | 0.0 | 5.0 | 0.02 | 0.09 | 0.03 | 89 | 1010.4 |
| 20260507090204 | 66 | 220 | 2.0 | 8.0 | 0.01 | 0.08 | 0.02 | 91 | 1010.2 |
| 20260507085204 | 66 | 295 | 0.0 | 0.0 | 0.01 | 0.08 | 0.02 | 91 | 1010.2 |
| 20260507084704 | 66 | 295 | 0.0 | 0.0 | 0.00 | 0.07 | 0.01 | 90 | 1010.3 |
| 20260507084204 | 66 | 295 | 0.0 | 0.0 | 0.00 | 0.07 | 0.01 | 90 | 1010.4 |
| 20260507083704 | 66 | 295 | 0.0 | 0.0 | 0.00 | 0.07 | 0.01 | 90 | 1010.1 |
| 20260507083204 | 66 | 295 | 0.0 | 0.0 | 0.00 | 0.07 | 0.01 | 90 | 1010.1 |
| 20260507082204 | 67 | 295 | 0.0 | 0.0 | 0.00 | 0.07 | 0.01 | 90 | 1009.8 |
| 20260507081703 | 67 | 295 | 0.0 | 0.0 | 0.00 | 0.07 | 0.01 | 90 | 1009.8 |
| 20260507081204 | 67 | 295 | 0.0 | 0.0 | 0.00 | 0.07 | 0.01 | 90 | 1009.9 |
| 20260507080704 | 67 | 295 | 0.0 | 0.0 | 0.00 | 0.07 | 0.01 | 90 | 1010.1 |
| 20260507080204 | 67 | 295 | 0.0 | 0.0 | 0.00 | 0.07 | 0.01 | 89 | 1009.5 |
| 20260507075705 | 67 | 295 | 0.0 | 0.0 | 0.01 | 0.07 | 0.01 | 89 | 1009.4 |
| 20260507075204 | 67 | 295 | 0.0 | 0.0 | 0.01 | 0.07 | 0.01 | 89 | 1009.3 |
| 20260507073703 | 67 | 295 | 0.0 | 0.0 | 0.01 | 0.07 | 0.01 | 89 | 1009.1 |
| 20260507073205 | 67 | 295 | 0.0 | 0.0 | 0.01 | 0.07 | 0.01 | 88 | 1009.2 |
| 20260507072204 | 68 | 295 | 0.0 | 0.0 | 0.01 | 0.07 | 0.01 | 88 | 1009.1 |
| 20260507071704 | 68 | 295 | 2.0 | 5.0 | 0.01 | 0.07 | 0.01 | 87 | 1009.3 |
| 20260507071205 | 68 | 295 | 0.0 | 0.0 | 0.01 | 0.07 | 0.01 | 87 | 1009.3 |
| 20260507070704 | 68 | 295 | 0.0 | 0.0 | 0.01 | 0.07 | 0.01 | 87 | 1009.6 |
| 20260507070204 | 68 | 295 | 0.0 | 0.0 | 0.01 | 0.07 | 0.01 | 86 | 1009.7 |
| 20260507065705 | 68 | 295 | 0.0 | 0.0 | 0.00 | 0.06 | 0.00 | 86 | 1009.8 |
| 20260507064704 | 68 | 295 | 0.0 | 0.0 | 0.00 | 0.06 | 0.00 | 85 | 1009.4 |
| 20260507064203 | 68 | 295 | 0.0 | 0.0 | 0.00 | 0.06 | 0.00 | 84 | 1009.3 |
| 20260507063704 | 68 | 295 | 0.0 | 0.0 | 0.00 | 0.06 | 0.00 | 84 | 1009.4 |
| 20260507062704 | 68 | 295 | 0.0 | 0.0 | 0.00 | 0.06 | 0.00 | 83 | 1009.3 |
| 20260507062205 | 69 | 295 | 0.0 | 0.0 | 0.00 | 0.06 | 0.00 | 83 | 1009.2 |
| 20260507061703 | 69 | 295 | 0.0 | 0.0 | 0.00 | 0.06 | 0.00 | 82 | 1009.1 |
| 20260507061204 | 69 | 295 | 0.0 | 0.0 | 0.00 | 0.06 | 0.00 | 82 | 1009.1 |
| 20260507060704 | 69 | 295 | 0.0 | 0.0 | 0.00 | 0.06 | 0.00 | 82 | 1009.2 |
| 20260507060204 | 69 | 296 | 0.0 | 0.0 | 0.00 | 0.06 | 0.00 | 82 | 1009.2 |
| 20260507055703 | 69 | 296 | 0.0 | 0.0 | 0.00 | 0.06 | 0.00 | 82 | 1009.2 |
| 20260507055203 | 69 | 296 | 0.0 | 0.0 | 0.00 | 0.06 | 0.00 | 82 | 1009.2 |
| 20260507053204 | 69 | 296 | 0.0 | 0.0 | 0.00 | 0.06 | 0.00 | 83 | 1009.6 |
| 20260507052204 | 69 | 296 | 0.0 | 0.0 | 0.00 | 0.06 | 0.00 | 83 | 1009.6 |
| 20260507051703 | 69 | 296 | 2.0 | 7.0 | 0.00 | 0.06 | 0.00 | 82 | 1009.7 |
| 20260507050704 | 69 | 295 | 0.0 | 3.0 | 0.00 | 0.06 | 0.00 | 82 | 1010.0 |
| 20260507050204 | 69 | 295 | 1.0 | 5.0 | 0.00 | 0.06 | 0.00 | 82 | 1010.3 |
| 20260507045705 | 69 | 302 | 5.0 | 8.0 | 0.00 | 0.06 | 0.00 | 82 | 1010.5 |
| 20260507045205 | 69 | 302 | 3.0 | 7.0 | 0.00 | 0.06 | 0.00 | 82 | 1010.7 |
| 20260507044203 | 69 | 305 | 0.0 | 0.0 | 0.00 | 0.06 | 0.00 | 83 | 1010.8 |
| 20260507043704 | 69 | 305 | 0.0 | 0.0 | 0.00 | 0.06 | 0.00 | 83 | 1010.9 |
| 20260507042703 | 69 | 305 | 0.0 | 1.0 | 0.00 | 0.06 | 0.00 | 83 | 1011.1 |
| 20260507042205 | 69 | 305 | 2.0 | 3.0 | 0.00 | 0.06 | 0.00 | 83 | 1011.0 |
| 20260507041703 | 69 | 306 | 1.0 | 7.0 | 0.00 | 0.06 | 0.00 | 83 | 1010.8 |
| 20260507040704 | 68 | 309 | 0.0 | 0.0 | 0.00 | 0.06 | 0.00 | 83 | 1010.8 |
| 20260507040207 | 68 | 309 | 0.0 | 0.0 | 0.00 | 0.06 | 0.00 | 83 | 1010.7 |
| 20260507035706 | 68 | 309 | 0.0 | 0.0 | 0.00 | 0.06 | 0.06 | 83 | 1010.6 |
| 20260507035206 | 68 | 309 | 0.0 | 0.0 | 0.00 | 0.06 | 0.06 | 84 | 1010.6 |
| 20260507034705 | 68 | 309 | 0.0 | 0.0 | 0.00 | 0.06 | 0.06 | 84 | 1010.7 |
| 20260507034205 | 68 | 309 | 0.0 | 0.0 | 0.00 | 0.06 | 0.06 | 84 | 1010.7 |
| 20260507033706 | 68 | 309 | 2.0 | 7.0 | 0.00 | 0.06 | 0.06 | 84 | 1010.7 |
| 20260507032205 | 68 | 309 | 0.0 | 0.0 | 0.00 | 0.06 | 0.06 | 85 | 1010.2 |
| 20260507031706 | 67 | 309 | 0.0 | 0.0 | 0.00 | 0.06 | 0.06 | 85 | 1010.1 |
| 20260507031205 | 67 | 309 | 0.0 | 0.0 | 0.00 | 0.06 | 0.06 | 85 | 1010.2 |
| 20260507030705 | 67 | 309 | 0.0 | 0.0 | 0.00 | 0.06 | 0.06 | 85 | 1010.3 |
| 20260507025705 | 67 | 309 | 0.0 | 0.0 | 0.00 | 0.06 | 0.06 | 85 | 1010.1 |
| 20260507025205 | 67 | 309 | 0.0 | 0.0 | 0.00 | 0.06 | 0.06 | 85 | 1009.9 |
| 20260507024705 | 67 | 309 | 0.0 | 0.0 | 0.00 | 0.06 | 0.06 | 85 | 1010.0 |
| 20260507024205 | 67 | 309 | 0.0 | 0.0 | 0.00 | 0.06 | 0.06 | 85 | 1010.0 |
| 20260507023705 | 67 | 309 | 0.0 | 0.0 | 0.00 | 0.06 | 0.06 | 85 | 1010.2 |
| 20260507023206 | 67 | 309 | 0.0 | 0.0 | 0.00 | 0.06 | 0.06 | 85 | 1010.3 |
| 20260507021705 | 67 | 309 | 0.0 | 0.0 | 0.00 | 0.06 | 0.06 | 84 | 1010.5 |
| 20260507020705 | 68 | 309 | 0.0 | 0.0 | 0.00 | 0.06 | 0.06 | 84 | 1010.6 |
| 20260507020205 | 68 | 309 | 0.0 | 0.0 | 0.00 | 0.06 | 0.06 | 84 | 1010.8 |
| 20260507015707 | 68 | 309 | 0.0 | 0.0 | 0.00 | 0.06 | 0.06 | 84 | 1011.0 |
| 20260507014706 | 68 | 309 | 0.0 | 0.0 | 0.00 | 0.06 | 0.06 | 83 | 1010.8 |
| 20260507014205 | 68 | 309 | 0.0 | 0.0 | 0.00 | 0.06 | 0.06 | 83 | 1010.9 |
| 20260507013706 | 68 | 309 | 0.0 | 0.0 | 0.00 | 0.06 | 0.06 | 83 | 1010.8 |
| 20260507013205 | 68 | 309 | 0.0 | 0.0 | 0.00 | 0.06 | 0.06 | 82 | 1010.7 |
| 20260507012706 | 68 | 309 | 0.0 | 0.0 | 0.00 | 0.06 | 0.06 | 82 | 1010.7 |
| 20260507012205 | 68 | 309 | 0.0 | 0.0 | 0.00 | 0.06 | 0.06 | 82 | 1010.6 |
| 20260507011706 | 68 | 309 | 0.0 | 0.0 | 0.00 | 0.06 | 0.06 | 82 | 1010.5 |
| 20260507011206 | 69 | 309 | 0.0 | 0.0 | 0.00 | 0.06 | 0.06 | 81 | 1010.6 |
| 20260507010707 | 69 | 309 | 0.0 | 0.0 | 0.00 | 0.06 | 0.06 | 81 | 1010.6 |
| 20260507010207 | 69 | 309 | 0.0 | 0.0 | 0.00 | 0.06 | 0.06 | 81 | 1010.7 |
| 20260507005705 | 69 | 309 | 0.0 | 0.0 | 0.00 | 0.06 | 0.06 | 81 | 1010.6 |
| 20260507005205 | 69 | 309 | 0.0 | 0.0 | 0.00 | 0.06 | 0.06 | 81 | 1010.6 |
| 20260507004705 | 69 | 309 | 0.0 | 0.0 | 0.00 | 0.06 | 0.06 | 80 | 1010.4 |
| 20260507004206 | 69 | 309 | 0.0 | 0.0 | 0.00 | 0.06 | 0.06 | 80 | 1010.3 |
| 20260507003205 | 70 | 309 | 0.0 | 0.0 | 0.00 | 0.06 | 0.06 | 80 | 1010.6 |
| 20260507002705 | 70 | 309 | 0.0 | 0.0 | 0.00 | 0.06 | 0.06 | 79 | 1010.6 |
| 20260507002206 | 70 | 309 | 0.0 | 0.0 | 0.00 | 0.06 | 0.06 | 79 | 1010.6 |
| 20260507001705 | 70 | 309 | 0.0 | 0.0 | 0.00 | 0.06 | 0.06 | 79 | 1010.7 |
| 20260507001205 | 70 | 309 | 0.0 | 0.0 | 0.00 | 0.06 | 0.06 | 78 | 1010.7 |
| 20260507000705 | 70 | 309 | 0.0 | 0.0 | 0.00 | 0.06 | 0.06 | 78 | 1010.8 |
| 20260507000206 | 70 | 309 | 0.0 | 0.0 | 0.00 | 0.06 | 0.06 | 78 | 1010.8 |
| 20260506235705 | 70 | 309 | 0.0 | 1.0 | 0.00 | 0.06 | 0.06 | 78 | 1010.8 |
| 20260506235205 | 70 | 309 | 2.0 | 3.0 | 0.00 | 0.06 | 0.06 | 78 | 1010.6 |
| 20260506234205 | 70 | 302 | 0.0 | 0.0 | 0.00 | 0.06 | 0.06 | 78 | 1010.4 |
| 20260506233705 | 70 | 302 | 0.0 | 0.0 | 0.00 | 0.06 | 0.06 | 78 | 1010.2 |
| 20260506233206 | 71 | 302 | 0.0 | 0.0 | 0.00 | 0.06 | 0.06 | 78 | 1010.2 |
| 20260506232705 | 71 | 302 | 0.0 | 0.0 | 0.00 | 0.06 | 0.06 | 77 | 1010.2 |
| 20260506232206 | 71 | 302 | 0.0 | 0.0 | 0.00 | 0.06 | 0.06 | 78 | 1010.2 |
| 20260506231705 | 71 | 302 | 0.0 | 0.0 | 0.00 | 0.06 | 0.06 | 77 | 1010.3 |
| 20260506230705 | 71 | 302 | 2.0 | 5.0 | 0.00 | 0.06 | 0.06 | 77 | 1010.3 |
| 20260506230205 | 71 | 302 | 0.0 | 0.0 | 0.00 | 0.06 | 0.06 | 77 | 1010.3 |
| 20260506225705 | 71 | 302 | 0.0 | 0.0 | 0.00 | 0.06 | 0.06 | 76 | 1010.3 |
| 20260506225205 | 71 | 302 | 0.0 | 0.0 | 0.00 | 0.06 | 0.06 | 77 | 1010.2 |
| 20260506224706 | 71 | 302 | 0.0 | 0.0 | 0.00 | 0.06 | 0.06 | 76 | 1010.2 |
| 20260506224205 | 71 | 302 | 0.0 | 0.0 | 0.00 | 0.06 | 0.06 | 76 | 1010.2 |
| 20260506223705 | 71 | 302 | 0.0 | 0.0 | 0.00 | 0.06 | 0.06 | 76 | 1010.2 |
| 20260506223205 | 71 | 302 | 0.0 | 0.0 | 0.00 | 0.06 | 0.06 | 76 | 1010.2 |
| 20260506222705 | 71 | 302 | 0.0 | 0.0 | 0.00 | 0.06 | 0.06 | 76 | 1010.3 |
| 20260506221705 | 71 | 302 | 0.0 | 7.0 | 0.00 | 0.06 | 0.06 | 75 | 1010.2 |
| 20260506221205 | 71 | 296 | 1.0 | 5.0 | 0.00 | 0.06 | 0.06 | 76 | 1010.3 |
| 20260506220706 | 71 | 296 | 5.0 | 7.0 | 0.00 | 0.06 | 0.06 | 75 | 1010.3 |
| 20260506220205 | 71 | 296 | 0.0 | 8.0 | 0.00 | 0.06 | 0.06 | 75 | 1010.2 |
| 20260506215704 | 71 | 284 | 0.0 | 0.0 | 0.00 | 0.06 | 0.06 | 75 | 1010.3 |
| 20260506215205 | 71 | 284 | 0.0 | 0.0 | 0.00 | 0.06 | 0.06 | 76 | 1010.2 |
| 20260506214205 | 71 | 296 | 0.0 | 7.0 | 0.00 | 0.06 | 0.06 | 76 | 1010.2 |
| 20260506213206 | 70 | 302 | 3.0 | 7.0 | 0.00 | 0.06 | 0.06 | 75 | 1010.4 |
| 20260506212705 | 70 | 290 | 2.0 | 5.0 | 0.00 | 0.06 | 0.06 | 76 | 1010.4 |
| 20260506211706 | 70 | 297 | 0.0 | 0.0 | 0.00 | 0.06 | 0.06 | 77 | 1010.7 |
| 20260506210705 | 70 | 288 | 7.0 | 12.0 | 0.00 | 0.06 | 0.06 | 77 | 1010.4 |
| 20260506210204 | 70 | 287 | 4.0 | 5.0 | 0.00 | 0.06 | 0.06 | 78 | 1010.2 |
| 20260506205705 | 69 | 291 | 4.0 | 7.0 | 0.00 | 0.06 | 0.06 | 78 | 1010.3 |
| 20260506204706 | 69 | 290 | 2.0 | 7.0 | 0.00 | 0.06 | 0.06 | 78 | 1010.2 |
| 20260506204204 | 69 | 290 | 4.0 | 7.0 | 0.00 | 0.06 | 0.06 | 79 | 1010.3 |
| 20260506203705 | 69 | 349 | 3.0 | 5.0 | 0.00 | 0.06 | 0.06 | 81 | 1010.3 |
| 20260506203204 | 69 | 349 | 2.0 | 7.0 | 0.00 | 0.06 | 0.06 | 80 | 1010.4 |
| 20260506202205 | 69 | 295 | 2.0 | 5.0 | 0.00 | 0.06 | 0.06 | 80 | 1010.3 |
| 20260506201705 | 69 | 294 | 1.0 | 5.0 | 0.00 | 0.06 | 0.06 | 80 | 1010.3 |
| 20260506201205 | 68 | 293 | 3.0 | 8.0 | 0.00 | 0.06 | 0.06 | 81 | 1010.3 |
| 20260506200707 | 68 | 280 | 0.0 | 0.0 | 0.00 | 0.06 | 0.06 | 82 | 1010.2 |
| 20260506195705 | 68 | 320 | 7.0 | 8.0 | 0.00 | 0.06 | 0.06 | 81 | 1010.1 |
| 20260506194205 | 67 | 295 | 3.0 | 8.0 | 0.00 | 0.06 | 0.06 | 82 | 1009.5 |
| 20260506193705 | 67 | 295 | 0.0 | 7.0 | 0.00 | 0.06 | 0.06 | 83 | 1009.3 |
| 20260506193205 | 67 | 295 | 3.0 | 5.0 | 0.00 | 0.06 | 0.06 | 85 | 1009.5 |
| 20260506192205 | 67 | 295 | 1.0 | 5.0 | 0.00 | 0.06 | 0.06 | 85 | 1009.9 |
| 20260506191705 | 67 | 295 | 0.0 | 0.0 | 0.00 | 0.06 | 0.06 | 84 | 1010.1 |
| 20260506191206 | 66 | 295 | 0.0 | 0.0 | 0.00 | 0.06 | 0.06 | 85 | 1010.2 |
| 20260506190704 | 66 | 292 | 4.0 | 5.0 | 0.00 | 0.06 | 0.06 | 84 | 1010.4 |
| 20260506190204 | 66 | 286 | 5.0 | 5.0 | 0.00 | 0.06 | 0.06 | 86 | 1010.4 |
| 20260506185705 | 66 | 272 | 2.0 | 5.0 | 0.00 | 0.06 | 0.06 | 86 | 1010.5 |
| 20260506184705 | 65 | 271 | 5.0 | 8.0 | 0.00 | 0.06 | 0.06 | 86 | 1010.5 |
| 20260506184205 | 65 | 299 | 2.0 | 8.0 | 0.00 | 0.06 | 0.06 | 87 | 1010.7 |
| 20260506183205 | 65 | 292 | 4.0 | 7.0 | 0.00 | 0.06 | 0.06 | 87 | 1011.2 |
| 20260506182704 | 65 | 293 | 0.0 | 0.0 | 0.00 | 0.06 | 0.06 | 87 | 1011.6 |
| 20260506181205 | 65 | 304 | 4.0 | 5.0 | 0.00 | 0.06 | 0.06 | 87 | 1011.8 |
| 20260506180705 | 65 | 304 | 2.0 | 3.0 | 0.00 | 0.06 | 0.06 | 87 | 1011.9 |
| 20260506175704 | 65 | 299 | 0.0 | 3.0 | 0.00 | 0.06 | 0.06 | 88 | 1011.9 |
| 20260506175205 | 65 | 299 | 3.0 | 5.0 | 0.00 | 0.06 | 0.06 | 87 | 1012.0 |
| 20260506174204 | 64 | 299 | 0.0 | 5.0 | 0.00 | 0.06 | 0.06 | 87 | 1012.0 |
| 20260506173704 | 64 | 299 | 2.0 | 3.0 | 0.00 | 0.06 | 0.06 | 87 | 1012.1 |
| 20260506172706 | 64 | 299 | 0.0 | 5.0 | 0.00 | 0.06 | 0.06 | 87 | 1012.0 |
| 20260506171705 | 64 | 295 | 2.0 | 3.0 | 0.00 | 0.06 | 0.06 | 88 | 1011.9 |
| 20260506171204 | 64 | 295 | 3.0 | 5.0 | 0.00 | 0.06 | 0.06 | 88 | 1011.8 |
| 20260506170206 | 64 | 296 | 0.0 | 0.0 | 0.00 | 0.06 | 0.06 | 88 | 1011.9 |
| 20260506165705 | 64 | 296 | 0.0 | 8.0 | 0.00 | 0.06 | 0.06 | 88 | 1012.1 |
| 20260506165204 | 64 | 301 | 4.0 | 8.0 | 0.00 | 0.06 | 0.06 | 88 | 1012.1 |
| 20260506164704 | 63 | 298 | 3.0 | 5.0 | 0.00 | 0.06 | 0.06 | 89 | 1012.1 |
| 20260506164204 | 63 | 298 | 5.0 | 5.0 | 0.00 | 0.06 | 0.06 | 89 | 1012.0 |
| 20260506163705 | 63 | 265 | 0.0 | 0.0 | 0.00 | 0.06 | 0.06 | 89 | 1012.1 |
| 20260506163206 | 63 | 305 | 0.0 | 0.0 | 0.00 | 0.06 | 0.06 | 89 | 1012.2 |
| 20260506162705 | 63 | 305 | 6.0 | 12.0 | 0.00 | 0.06 | 0.06 | 89 | 1012.1 |
| 20260506162205 | 63 | 294 | 5.0 | 8.0 | 0.00 | 0.06 | 0.06 | 89 | 1011.9 |
| 20260506161705 | 63 | 289 | 0.0 | 3.0 | 0.00 | 0.06 | 0.06 | 90 | 1011.8 |
| 20260506161205 | 63 | 289 | 2.0 | 8.0 | 0.00 | 0.06 | 0.06 | 89 | 1012.0 |
| 20260506160206 | 63 | 244 | 1.0 | 5.0 | 0.00 | 0.06 | 0.06 | 89 | 1012.1 |
| 20260506155704 | 63 | 298 | 2.0 | 8.0 | 0.01 | 0.06 | 0.06 | 89 | 1012.2 |
| 20260506154705 | 63 | 71 | 0.0 | 0.0 | 0.01 | 0.06 | 0.06 | 89 | 1012.3 |
| 20260506154205 | 63 | 292 | 0.0 | 0.0 | 0.02 | 0.06 | 0.06 | 89 | 1012.4 |
| 20260506153705 | 63 | 292 | 0.0 | 0.0 | 0.02 | 0.06 | 0.06 | 89 | 1012.6 |
| 20260506153204 | 63 | 292 | 0.0 | 0.0 | 0.03 | 0.06 | 0.06 | 89 | 1012.6 |
| 20260506152705 | 63 | 292 | 0.0 | 0.0 | 0.04 | 0.06 | 0.06 | 89 | 1012.7 |
| 20260506152206 | 63 | 292 | 0.0 | 0.0 | 0.05 | 0.06 | 0.06 | 89 | 1012.7 |
| 20260506151704 | 63 | 292 | 0.0 | 0.0 | 0.05 | 0.06 | 0.06 | 89 | 1012.7 |